sensor_id;sensor_type;location;lat;lon;timestamp;P1;durP1;ratioP1;P2;durP2;ratioP2
76758;SDS011;65701;45.588;5.186;2023-07-16T00:01:57;0.00;;;0.00;;
76758;SDS011;65701;45.588;5.186;2023-07-16T00:04:23;0.00;;;0.00;;
76758;SDS011;65701;45.588;5.186;2023-07-16T00:06:48;2.50;;;1.00;;
76758;SDS011;65701;45.588;5.186;2023-07-16T00:09:14;2.25;;;0.00;;
76758;SDS011;65701;45.588;5.186;2023-07-16T00:11:40;1.25;;;1.25;;
76758;SDS011;65701;45.588;5.186;2023-07-16T00:14:05;0.00;;;0.00;;
76758;SDS011;65701;45.588;5.186;2023-07-16T00:16:31;1.00;;;1.00;;
76758;SDS011;65701;45.588;5.186;2023-07-16T00:18:56;1.00;;;1.00;;
76758;SDS011;65701;45.588;5.186;2023-07-16T00:21:23;0.00;;;0.00;;
76758;SDS011;65701;45.588;5.186;2023-07-16T00:23:49;0.00;;;0.00;;
76758;SDS011;65701;45.588;5.186;2023-07-16T00:26:15;1.00;;;1.00;;
76758;SDS011;65701;45.588;5.186;2023-07-16T00:28:40;2.50;;;1.25;;
76758;SDS011;65701;45.588;5.186;2023-07-16T00:31:06;1.00;;;0.00;;
76758;SDS011;65701;45.588;5.186;2023-07-16T00:33:31;1.00;;;1.00;;
76758;SDS011;65701;45.588;5.186;2023-07-16T00:35:57;3.00;;;1.00;;
76758;SDS011;65701;45.588;5.186;2023-07-16T00:38:22;0.00;;;0.00;;
76758;SDS011;65701;45.588;5.186;2023-07-16T00:40:48;0.00;;;0.00;;
76758;SDS011;65701;45.588;5.186;2023-07-16T00:43:14;1.50;;;0.75;;
76758;SDS011;65701;45.588;5.186;2023-07-16T00:45:39;0.25;;;0.25;;
76758;SDS011;65701;45.588;5.186;2023-07-16T00:48:06;0.50;;;0.50;;
76758;SDS011;65701;45.588;5.186;2023-07-16T00:50:33;0.00;;;0.00;;
76758;SDS011;65701;45.588;5.186;2023-07-16T00:53:04;1.00;;;1.00;;
76758;SDS011;65701;45.588;5.186;2023-07-16T00:55:31;1.00;;;1.00;;
76758;SDS011;65701;45.588;5.186;2023-07-16T00:58:03;0.50;;;0.50;;
76758;SDS011;65701;45.588;5.186;2023-07-16T01:00:31;0.00;;;0.00;;
76758;SDS011;65701;45.588;5.186;2023-07-16T01:03:10;2.00;;;2.00;;
76758;SDS011;65701;45.588;5.186;2023-07-16T01:08:46;1.00;;;1.00;;
76758;SDS011;65701;45.588;5.186;2023-07-16T01:11:21;0.75;;;0.75;;
76758;SDS011;65701;45.588;5.186;2023-07-16T01:13:47;1.00;;;1.00;;
76758;SDS011;65701;45.588;5.186;2023-07-16T01:16:20;1.50;;;1.00;;
76758;SDS011;65701;45.588;5.186;2023-07-16T01:18:47;2.00;;;2.00;;
76758;SDS011;65701;45.588;5.186;2023-07-16T01:21:13;2.75;;;1.00;;
76758;SDS011;65701;45.588;5.186;2023-07-16T01:24:23;1.75;;;1.25;;
76758;SDS011;65701;45.588;5.186;2023-07-16T01:31:54;0.25;;;0.25;;
76758;SDS011;65701;45.588;5.186;2023-07-16T01:34:21;1.00;;;1.00;;
76758;SDS011;65701;45.588;5.186;2023-07-16T01:36:49;1.50;;;1.50;;
76758;SDS011;65701;45.588;5.186;2023-07-16T01:39:15;1.00;;;1.00;;
76758;SDS011;65701;45.588;5.186;2023-07-16T01:41:41;3.25;;;1.00;;
76758;SDS011;65701;45.588;5.186;2023-07-16T01:44:07;0.25;;;0.25;;
76758;SDS011;65701;45.588;5.186;2023-07-16T01:46:32;1.50;;;0.00;;
76758;SDS011;65701;45.588;5.186;2023-07-16T01:48:58;3.00;;;1.00;;
76758;SDS011;65701;45.588;5.186;2023-07-16T01:51:23;1.00;;;1.00;;
76758;SDS011;65701;45.588;5.186;2023-07-16T01:53:49;1.00;;;1.00;;
76758;SDS011;65701;45.588;5.186;2023-07-16T01:56:14;0.00;;;0.00;;
76758;SDS011;65701;45.588;5.186;2023-07-16T01:58:40;0.25;;;0.25;;
76758;SDS011;65701;45.588;5.186;2023-07-16T02:01:05;1.00;;;1.00;;
76758;SDS011;65701;45.588;5.186;2023-07-16T02:03:30;0.50;;;0.50;;
76758;SDS011;65701;45.588;5.186;2023-07-16T02:05:56;1.50;;;0.50;;
76758;SDS011;65701;45.588;5.186;2023-07-16T02:08:21;0.00;;;0.00;;
76758;SDS011;65701;45.588;5.186;2023-07-16T02:10:47;0.00;;;0.00;;
76758;SDS011;65701;45.588;5.186;2023-07-16T02:13:13;0.50;;;0.50;;
76758;SDS011;65701;45.588;5.186;2023-07-16T02:15:38;0.25;;;0.25;;
76758;SDS011;65701;45.588;5.186;2023-07-16T02:18:04;0.50;;;0.50;;
76758;SDS011;65701;45.588;5.186;2023-07-16T02:20:30;2.75;;;1.50;;
76758;SDS011;65701;45.588;5.186;2023-07-16T02:22:56;3.75;;;2.00;;
76758;SDS011;65701;45.588;5.186;2023-07-16T02:25:21;0.75;;;0.75;;
76758;SDS011;65701;45.588;5.186;2023-07-16T02:27:47;1.00;;;1.00;;
76758;SDS011;65701;45.588;5.186;2023-07-16T02:30:14;1.00;;;1.00;;
76758;SDS011;65701;45.588;5.186;2023-07-16T02:32:40;1.00;;;1.00;;
76758;SDS011;65701;45.588;5.186;2023-07-16T02:35:06;0.50;;;0.50;;
76758;SDS011;65701;45.588;5.186;2023-07-16T02:37:32;1.00;;;1.00;;
76758;SDS011;65701;45.588;5.186;2023-07-16T02:39:58;0.50;;;0.50;;
76758;SDS011;65701;45.588;5.186;2023-07-16T02:42:24;1.00;;;0.00;;
76758;SDS011;65701;45.588;5.186;2023-07-16T02:44:49;1.00;;;1.00;;
76758;SDS011;65701;45.588;5.186;2023-07-16T02:47:15;3.25;;;1.00;;
76758;SDS011;65701;45.588;5.186;2023-07-16T02:49:40;1.50;;;1.50;;
76758;SDS011;65701;45.588;5.186;2023-07-16T02:52:06;0.00;;;0.00;;
76758;SDS011;65701;45.588;5.186;2023-07-16T02:54:32;0.25;;;0.25;;
76758;SDS011;65701;45.588;5.186;2023-07-16T02:56:58;1.00;;;1.00;;
76758;SDS011;65701;45.588;5.186;2023-07-16T02:59:23;0.50;;;0.50;;
76758;SDS011;65701;45.588;5.186;2023-07-16T03:01:49;1.00;;;1.00;;
76758;SDS011;65701;45.588;5.186;2023-07-16T03:04:16;1.00;;;1.00;;
76758;SDS011;65701;45.588;5.186;2023-07-16T03:06:41;1.00;;;1.00;;
76758;SDS011;65701;45.588;5.186;2023-07-16T03:09:07;0.25;;;0.25;;
76758;SDS011;65701;45.588;5.186;2023-07-16T03:11:32;0.50;;;0.25;;
76758;SDS011;65701;45.588;5.186;2023-07-16T03:13:57;1.25;;;1.25;;
76758;SDS011;65701;45.588;5.186;2023-07-16T03:16:23;1.00;;;1.00;;
76758;SDS011;65701;45.588;5.186;2023-07-16T03:18:48;0.00;;;0.00;;
76758;SDS011;65701;45.588;5.186;2023-07-16T03:21:14;0.00;;;0.00;;
76758;SDS011;65701;45.588;5.186;2023-07-16T03:23:39;1.50;;;1.50;;
76758;SDS011;65701;45.588;5.186;2023-07-16T03:26:05;2.50;;;1.50;;
76758;SDS011;65701;45.588;5.186;2023-07-16T03:28:30;1.00;;;1.00;;
76758;SDS011;65701;45.588;5.186;2023-07-16T03:30:56;1.50;;;1.50;;
76758;SDS011;65701;45.588;5.186;2023-07-16T03:33:21;0.50;;;0.50;;
76758;SDS011;65701;45.588;5.186;2023-07-16T03:35:48;1.00;;;1.00;;
76758;SDS011;65701;45.588;5.186;2023-07-16T03:38:14;0.00;;;0.00;;
76758;SDS011;65701;45.588;5.186;2023-07-16T07:36:14;2.00;;;2.00;;
76758;SDS011;65701;45.588;5.186;2023-07-16T07:38:40;2.75;;;1.50;;
76758;SDS011;65701;45.588;5.186;2023-07-16T07:41:06;1.50;;;1.50;;
76758;SDS011;65701;45.588;5.186;2023-07-16T07:43:31;2.00;;;2.00;;
76758;SDS011;65701;45.588;5.186;2023-07-16T07:45:57;1.75;;;1.75;;
76758;SDS011;65701;45.588;5.186;2023-07-16T07:48:22;1.00;;;1.00;;
76758;SDS011;65701;45.588;5.186;2023-07-16T07:50:48;0.50;;;0.50;;
76758;SDS011;65701;45.588;5.186;2023-07-16T07:53:13;2.50;;;2.00;;
76758;SDS011;65701;45.588;5.186;2023-07-16T07:55:43;2.25;;;1.00;;
76758;SDS011;65701;45.588;5.186;2023-07-16T07:58:09;1.00;;;1.00;;
76758;SDS011;65701;45.588;5.186;2023-07-16T08:00:35;2.00;;;2.00;;
76758;SDS011;65701;45.588;5.186;2023-07-16T08:03:00;3.00;;;1.25;;
76758;SDS011;65701;45.588;5.186;2023-07-16T08:05:26;1.75;;;1.00;;
76758;SDS011;65701;45.588;5.186;2023-07-16T08:07:52;2.00;;;1.00;;
76758;SDS011;65701;45.588;5.186;2023-07-16T08:10:18;1.00;;;1.00;;
76758;SDS011;65701;45.588;5.186;2023-07-16T08:12:44;2.50;;;1.50;;
76758;SDS011;65701;45.588;5.186;2023-07-16T08:15:10;1.25;;;1.25;;
76758;SDS011;65701;45.588;5.186;2023-07-16T08:17:40;2.75;;;1.50;;
76758;SDS011;65701;45.588;5.186;2023-07-16T08:20:06;3.00;;;1.50;;
76758;SDS011;65701;45.588;5.186;2023-07-16T08:22:32;2.25;;;2.00;;
76758;SDS011;65701;45.588;5.186;2023-07-16T08:24:58;2.00;;;2.00;;
76758;SDS011;65701;45.588;5.186;2023-07-16T08:27:23;2.00;;;2.00;;
76758;SDS011;65701;45.588;5.186;2023-07-16T08:29:49;1.25;;;1.25;;
76758;SDS011;65701;45.588;5.186;2023-07-16T08:32:14;1.00;;;1.00;;
76758;SDS011;65701;45.588;5.186;2023-07-16T08:34:40;1.50;;;1.50;;
76758;SDS011;65701;45.588;5.186;2023-07-16T08:37:05;1.00;;;1.00;;
76758;SDS011;65701;45.588;5.186;2023-07-16T08:39:31;1.00;;;1.00;;
76758;SDS011;65701;45.588;5.186;2023-07-16T08:41:56;3.00;;;1.50;;
76758;SDS011;65701;45.588;5.186;2023-07-16T08:44:22;3.00;;;1.25;;
76758;SDS011;65701;45.588;5.186;2023-07-16T08:46:48;3.00;;;2.00;;
76758;SDS011;65701;45.588;5.186;2023-07-16T08:49:16;3.25;;;2.75;;
76758;SDS011;65701;45.588;5.186;2023-07-16T08:51:43;1.00;;;1.00;;
76758;SDS011;65701;45.588;5.186;2023-07-16T08:54:12;0.25;;;0.25;;
76758;SDS011;65701;45.588;5.186;2023-07-16T08:56:40;4.00;;;2.00;;
76758;SDS011;65701;45.588;5.186;2023-07-16T08:59:07;3.50;;;3.00;;
76758;SDS011;65701;45.588;5.186;2023-07-16T09:01:33;2.00;;;1.00;;
76758;SDS011;65701;45.588;5.186;2023-07-16T09:03:58;1.00;;;0.50;;
76758;SDS011;65701;45.588;5.186;2023-07-16T09:06:24;1.00;;;1.00;;
76758;SDS011;65701;45.588;5.186;2023-07-16T09:08:50;1.50;;;1.50;;
76758;SDS011;65701;45.588;5.186;2023-07-16T09:11:15;0.50;;;0.00;;
76758;SDS011;65701;45.588;5.186;2023-07-16T09:13:46;1.00;;;1.00;;
76758;SDS011;65701;45.588;5.186;2023-07-16T09:16:13;4.00;;;1.00;;
76758;SDS011;65701;45.588;5.186;2023-07-16T09:18:41;1.00;;;1.00;;
76758;SDS011;65701;45.588;5.186;2023-07-16T09:21:07;1.75;;;1.00;;
76758;SDS011;65701;45.588;5.186;2023-07-16T09:23:32;5.25;;;2.00;;
76758;SDS011;65701;45.588;5.186;2023-07-16T09:25:58;2.00;;;2.00;;
76758;SDS011;65701;45.588;5.186;2023-07-16T09:28:24;1.75;;;1.75;;
76758;SDS011;65701;45.588;5.186;2023-07-16T09:30:50;2.00;;;1.00;;
76758;SDS011;65701;45.588;5.186;2023-07-16T09:33:17;2.25;;;0.75;;
76758;SDS011;65701;45.588;5.186;2023-07-16T09:35:47;1.75;;;1.75;;
76758;SDS011;65701;45.588;5.186;2023-07-16T09:38:15;2.75;;;2.75;;
76758;SDS011;65701;45.588;5.186;2023-07-16T09:40:41;1.50;;;1.50;;
76758;SDS011;65701;45.588;5.186;2023-07-16T09:43:10;4.75;;;1.50;;
76758;SDS011;65701;45.588;5.186;2023-07-16T09:45:37;2.00;;;2.00;;
76758;SDS011;65701;45.588;5.186;2023-07-16T09:48:03;3.00;;;1.75;;
76758;SDS011;65701;45.588;5.186;2023-07-16T09:50:30;2.25;;;2.00;;
76758;SDS011;65701;45.588;5.186;2023-07-16T09:52:58;2.00;;;2.00;;
76758;SDS011;65701;45.588;5.186;2023-07-16T09:55:24;1.75;;;1.00;;
76758;SDS011;65701;45.588;5.186;2023-07-16T09:57:52;1.00;;;1.00;;
76758;SDS011;65701;45.588;5.186;2023-07-16T10:00:20;1.25;;;1.25;;
76758;SDS011;65701;45.588;5.186;2023-07-16T10:02:47;3.25;;;2.25;;
76758;SDS011;65701;45.588;5.186;2023-07-16T10:07:43;2.00;;;2.00;;
76758;SDS011;65701;45.588;5.186;2023-07-16T10:10:15;1.25;;;1.25;;
76758;SDS011;65701;45.588;5.186;2023-07-16T10:12:42;1.00;;;1.00;;
76758;SDS011;65701;45.588;5.186;2023-07-16T10:15:24;1.25;;;1.00;;
76758;SDS011;65701;45.588;5.186;2023-07-16T10:17:51;1.25;;;1.25;;
76758;SDS011;65701;45.588;5.186;2023-07-16T10:20:16;2.00;;;2.00;;
76758;SDS011;65701;45.588;5.186;2023-07-16T10:22:43;0.50;;;0.50;;
76758;SDS011;65701;45.588;5.186;2023-07-16T10:27:43;1.25;;;1.25;;
76758;SDS011;65701;45.588;5.186;2023-07-16T10:30:13;1.00;;;1.00;;
76758;SDS011;65701;45.588;5.186;2023-07-16T10:32:39;2.00;;;2.00;;
76758;SDS011;65701;45.588;5.186;2023-07-16T10:35:06;3.75;;;2.00;;
76758;SDS011;65701;45.588;5.186;2023-07-16T10:37:36;2.50;;;2.50;;
76758;SDS011;65701;45.588;5.186;2023-07-16T10:40:02;1.00;;;1.00;;
76758;SDS011;65701;45.588;5.186;2023-07-16T10:42:29;2.00;;;1.25;;
76758;SDS011;65701;45.588;5.186;2023-07-16T10:44:59;4.25;;;3.00;;
76758;SDS011;65701;45.588;5.186;2023-07-16T10:47:32;1.50;;;1.50;;
76758;SDS011;65701;45.588;5.186;2023-07-16T10:49:59;5.50;;;4.25;;
76758;SDS011;65701;45.588;5.186;2023-07-16T10:52:27;2.50;;;2.50;;
76758;SDS011;65701;45.588;5.186;2023-07-16T10:54:53;7.50;;;7.00;;
76758;SDS011;65701;45.588;5.186;2023-07-16T10:57:20;7.75;;;3.25;;
76758;SDS011;65701;45.588;5.186;2023-07-16T10:59:52;6.75;;;2.00;;
76758;SDS011;65701;45.588;5.186;2023-07-16T11:02:23;1.75;;;1.75;;
76758;SDS011;65701;45.588;5.186;2023-07-16T11:04:49;2.00;;;2.00;;
76758;SDS011;65701;45.588;5.186;2023-07-16T11:07:19;3.25;;;3.00;;
76758;SDS011;65701;45.588;5.186;2023-07-16T11:09:49;2.00;;;2.00;;
76758;SDS011;65701;45.588;5.186;2023-07-16T11:12:17;3.25;;;3.25;;
76758;SDS011;65701;45.588;5.186;2023-07-16T11:14:45;2.00;;;2.00;;
76758;SDS011;65701;45.588;5.186;2023-07-16T11:17:13;3.50;;;3.00;;
76758;SDS011;65701;45.588;5.186;2023-07-16T11:19:40;2.00;;;2.00;;
76758;SDS011;65701;45.588;5.186;2023-07-16T11:22:09;3.00;;;3.00;;
76758;SDS011;65701;45.588;5.186;2023-07-16T11:27:26;2.00;;;2.00;;
76758;SDS011;65701;45.588;5.186;2023-07-16T11:32:30;2.00;;;2.00;;
76758;SDS011;65701;45.588;5.186;2023-07-16T11:34:57;1.75;;;1.25;;
76758;SDS011;65701;45.588;5.186;2023-07-16T11:37:28;1.75;;;1.25;;
76758;SDS011;65701;45.588;5.186;2023-07-16T11:40:03;2.00;;;2.00;;
76758;SDS011;65701;45.588;5.186;2023-07-16T11:42:31;1.50;;;1.50;;
76758;SDS011;65701;45.588;5.186;2023-07-16T11:44:58;2.00;;;2.00;;
76758;SDS011;65701;45.588;5.186;2023-07-16T11:47:24;5.00;;;3.00;;
76758;SDS011;65701;45.588;5.186;2023-07-16T11:49:50;2.00;;;2.00;;
76758;SDS011;65701;45.588;5.186;2023-07-16T11:54:49;3.00;;;3.00;;
76758;SDS011;65701;45.588;5.186;2023-07-16T11:57:15;1.00;;;1.00;;
76758;SDS011;65701;45.588;5.186;2023-07-16T11:59:41;2.50;;;1.75;;
76758;SDS011;65701;45.588;5.186;2023-07-16T12:02:06;1.00;;;1.00;;
76758;SDS011;65701;45.588;5.186;2023-07-16T12:04:32;2.00;;;2.00;;
76758;SDS011;65701;45.588;5.186;2023-07-16T12:06:58;1.00;;;1.00;;
76758;SDS011;65701;45.588;5.186;2023-07-16T12:09:23;1.50;;;1.50;;
76758;SDS011;65701;45.588;5.186;2023-07-16T12:11:48;7.25;;;5.00;;
76758;SDS011;65701;45.588;5.186;2023-07-16T12:14:14;2.00;;;1.50;;
76758;SDS011;65701;45.588;5.186;2023-07-16T12:16:39;3.50;;;3.00;;
76758;SDS011;65701;45.588;5.186;2023-07-16T12:19:07;4.50;;;3.25;;
76758;SDS011;65701;45.588;5.186;2023-07-16T12:21:33;8.00;;;2.75;;
76758;SDS011;65701;45.588;5.186;2023-07-16T12:23:59;2.50;;;2.50;;
76758;SDS011;65701;45.588;5.186;2023-07-16T12:26:24;1.00;;;1.00;;
76758;SDS011;65701;45.588;5.186;2023-07-16T12:28:50;2.00;;;2.00;;
76758;SDS011;65701;45.588;5.186;2023-07-16T12:31:15;1.00;;;1.00;;
76758;SDS011;65701;45.588;5.186;2023-07-16T12:33:45;1.00;;;1.00;;
76758;SDS011;65701;45.588;5.186;2023-07-16T12:36:11;2.00;;;2.00;;
76758;SDS011;65701;45.588;5.186;2023-07-16T12:38:37;2.50;;;2.50;;
76758;SDS011;65701;45.588;5.186;2023-07-16T12:41:03;1.25;;;1.25;;
76758;SDS011;65701;45.588;5.186;2023-07-16T12:43:28;3.50;;;2.25;;
76758;SDS011;65701;45.588;5.186;2023-07-16T12:45:54;1.75;;;1.75;;
76758;SDS011;65701;45.588;5.186;2023-07-16T12:48:19;2.75;;;2.75;;
76758;SDS011;65701;45.588;5.186;2023-07-16T12:50:45;2.00;;;2.00;;
76758;SDS011;65701;45.588;5.186;2023-07-16T12:53:10;3.00;;;3.00;;
76758;SDS011;65701;45.588;5.186;2023-07-16T12:55:36;3.00;;;3.00;;
76758;SDS011;65701;45.588;5.186;2023-07-16T12:58:02;1.75;;;1.25;;
76758;SDS011;65701;45.588;5.186;2023-07-16T13:00:27;2.25;;;2.25;;
76758;SDS011;65701;45.588;5.186;2023-07-16T13:02:53;2.00;;;1.00;;
76758;SDS011;65701;45.588;5.186;2023-07-16T13:05:19;2.00;;;1.75;;
76758;SDS011;65701;45.588;5.186;2023-07-16T13:07:44;1.00;;;1.00;;
76758;SDS011;65701;45.588;5.186;2023-07-16T13:10:10;6.00;;;1.75;;
76758;SDS011;65701;45.588;5.186;2023-07-16T13:12:35;1.00;;;1.00;;
76758;SDS011;65701;45.588;5.186;2023-07-16T13:15:01;2.25;;;2.25;;
76758;SDS011;65701;45.588;5.186;2023-07-16T13:17:26;4.00;;;4.00;;
76758;SDS011;65701;45.588;5.186;2023-07-16T13:19:51;2.25;;;2.25;;
76758;SDS011;65701;45.588;5.186;2023-07-16T13:22:17;4.50;;;2.00;;
76758;SDS011;65701;45.588;5.186;2023-07-16T13:24:42;1.50;;;1.50;;
76758;SDS011;65701;45.588;5.186;2023-07-16T13:27:09;1.75;;;1.00;;
76758;SDS011;65701;45.588;5.186;2023-07-16T13:29:35;2.25;;;2.25;;
76758;SDS011;65701;45.588;5.186;2023-07-16T13:32:00;5.50;;;3.75;;
76758;SDS011;65701;45.588;5.186;2023-07-16T13:34:26;1.50;;;1.50;;
76758;SDS011;65701;45.588;5.186;2023-07-16T13:36:51;3.25;;;2.00;;
76758;SDS011;65701;45.588;5.186;2023-07-16T13:39:17;2.00;;;2.00;;
76758;SDS011;65701;45.588;5.186;2023-07-16T13:41:44;2.25;;;2.00;;
76758;SDS011;65701;45.588;5.186;2023-07-16T13:44:09;2.75;;;1.50;;
76758;SDS011;65701;45.588;5.186;2023-07-16T13:46:35;2.50;;;2.50;;
76758;SDS011;65701;45.588;5.186;2023-07-16T13:49:02;3.00;;;2.00;;
76758;SDS011;65701;45.588;5.186;2023-07-16T13:51:28;1.25;;;1.25;;
76758;SDS011;65701;45.588;5.186;2023-07-16T13:53:53;2.00;;;2.00;;
76758;SDS011;65701;45.588;5.186;2023-07-16T13:56:19;2.00;;;2.00;;
76758;SDS011;65701;45.588;5.186;2023-07-16T13:58:44;3.00;;;2.00;;
76758;SDS011;65701;45.588;5.186;2023-07-16T14:01:10;3.50;;;3.50;;
76758;SDS011;65701;45.588;5.186;2023-07-16T14:03:35;2.00;;;2.00;;
76758;SDS011;65701;45.588;5.186;2023-07-16T14:06:01;2.50;;;2.50;;
76758;SDS011;65701;45.588;5.186;2023-07-16T14:08:26;2.00;;;2.00;;
76758;SDS011;65701;45.588;5.186;2023-07-16T14:10:53;2.00;;;2.00;;
76758;SDS011;65701;45.588;5.186;2023-07-16T14:13:18;2.25;;;2.25;;
76758;SDS011;65701;45.588;5.186;2023-07-16T14:15:44;2.00;;;2.00;;
76758;SDS011;65701;45.588;5.186;2023-07-16T14:18:09;1.00;;;1.00;;
76758;SDS011;65701;45.588;5.186;2023-07-16T14:20:35;4.00;;;2.00;;
76758;SDS011;65701;45.588;5.186;2023-07-16T14:23:01;2.50;;;2.50;;
76758;SDS011;65701;45.588;5.186;2023-07-16T14:25:26;3.50;;;3.25;;
76758;SDS011;65701;45.588;5.186;2023-07-16T14:27:52;3.00;;;3.00;;
76758;SDS011;65701;45.588;5.186;2023-07-16T14:30:17;1.25;;;1.25;;
76758;SDS011;65701;45.588;5.186;2023-07-16T14:32:42;2.50;;;2.50;;
76758;SDS011;65701;45.588;5.186;2023-07-16T14:35:08;2.25;;;2.25;;
76758;SDS011;65701;45.588;5.186;2023-07-16T14:37:34;2.00;;;2.00;;
76758;SDS011;65701;45.588;5.186;2023-07-16T14:40:00;2.00;;;2.00;;
76758;SDS011;65701;45.588;5.186;2023-07-16T14:42:26;2.25;;;2.00;;
76758;SDS011;65701;45.588;5.186;2023-07-16T14:44:53;2.00;;;2.00;;
76758;SDS011;65701;45.588;5.186;2023-07-16T14:47:20;3.50;;;3.25;;
76758;SDS011;65701;45.588;5.186;2023-07-16T14:49:47;3.00;;;2.75;;
76758;SDS011;65701;45.588;5.186;2023-07-16T14:52:12;5.00;;;3.25;;
76758;SDS011;65701;45.588;5.186;2023-07-16T14:54:38;3.00;;;3.00;;
76758;SDS011;65701;45.588;5.186;2023-07-16T14:57:03;3.00;;;1.00;;
76758;SDS011;65701;45.588;5.186;2023-07-16T14:59:29;1.00;;;1.00;;
76758;SDS011;65701;45.588;5.186;2023-07-16T15:01:54;3.00;;;3.00;;
76758;SDS011;65701;45.588;5.186;2023-07-16T15:04:20;2.00;;;2.00;;
76758;SDS011;65701;45.588;5.186;2023-07-16T15:06:45;3.25;;;3.00;;
76758;SDS011;65701;45.588;5.186;2023-07-16T15:09:11;2.50;;;2.50;;
76758;SDS011;65701;45.588;5.186;2023-07-16T15:11:38;2.75;;;2.75;;
76758;SDS011;65701;45.588;5.186;2023-07-16T15:14:04;3.50;;;2.75;;
76758;SDS011;65701;45.588;5.186;2023-07-16T15:16:29;2.50;;;2.50;;
76758;SDS011;65701;45.588;5.186;2023-07-16T15:18:55;3.75;;;2.25;;
76758;SDS011;65701;45.588;5.186;2023-07-16T15:21:20;4.00;;;4.00;;
76758;SDS011;65701;45.588;5.186;2023-07-16T15:23:46;3.75;;;2.50;;
76758;SDS011;65701;45.588;5.186;2023-07-16T15:26:11;3.50;;;2.00;;
76758;SDS011;65701;45.588;5.186;2023-07-16T15:28:38;3.50;;;2.00;;
76758;SDS011;65701;45.588;5.186;2023-07-16T15:31:06;4.00;;;4.00;;
76758;SDS011;65701;45.588;5.186;2023-07-16T15:33:32;4.50;;;3.25;;
76758;SDS011;65701;45.588;5.186;2023-07-16T15:35:58;5.00;;;3.75;;
76758;SDS011;65701;45.588;5.186;2023-07-16T15:38:24;3.75;;;2.25;;
76758;SDS011;65701;45.588;5.186;2023-07-16T15:40:50;5.00;;;3.25;;
76758;SDS011;65701;45.588;5.186;2023-07-16T15:43:15;2.00;;;2.00;;
76758;SDS011;65701;45.588;5.186;2023-07-16T15:45:41;3.50;;;3.25;;
76758;SDS011;65701;45.588;5.186;2023-07-16T15:48:07;3.00;;;1.25;;
76758;SDS011;65701;45.588;5.186;2023-07-16T15:50:32;1.50;;;1.50;;
76758;SDS011;65701;45.588;5.186;2023-07-16T15:52:58;3.00;;;3.00;;
76758;SDS011;65701;45.588;5.186;2023-07-16T15:55:23;4.75;;;3.50;;
76758;SDS011;65701;45.588;5.186;2023-07-16T15:57:49;3.75;;;3.75;;
76758;SDS011;65701;45.588;5.186;2023-07-16T16:00:15;4.75;;;3.00;;
76758;SDS011;65701;45.588;5.186;2023-07-16T16:02:44;4.25;;;4.25;;
76758;SDS011;65701;45.588;5.186;2023-07-16T16:05:10;3.00;;;3.00;;
76758;SDS011;65701;45.588;5.186;2023-07-16T16:07:41;5.25;;;3.50;;
76758;SDS011;65701;45.588;5.186;2023-07-16T16:10:08;4.25;;;4.25;;
76758;SDS011;65701;45.588;5.186;2023-07-16T16:12:34;3.00;;;3.00;;
76758;SDS011;65701;45.588;5.186;2023-07-16T16:14:59;4.75;;;3.25;;
76758;SDS011;65701;45.588;5.186;2023-07-16T16:17:25;3.50;;;3.50;;
76758;SDS011;65701;45.588;5.186;2023-07-16T16:19:50;4.50;;;3.00;;
76758;SDS011;65701;45.588;5.186;2023-07-16T16:22:16;5.25;;;4.25;;
76758;SDS011;65701;45.588;5.186;2023-07-16T16:24:41;4.00;;;4.00;;
76758;SDS011;65701;45.588;5.186;2023-07-16T16:27:07;4.50;;;4.50;;
76758;SDS011;65701;45.588;5.186;2023-07-16T16:29:33;4.50;;;3.25;;
76758;SDS011;65701;45.588;5.186;2023-07-16T16:31:58;3.50;;;2.75;;
76758;SDS011;65701;45.588;5.186;2023-07-16T16:34:25;3.00;;;2.25;;
76758;SDS011;65701;45.588;5.186;2023-07-16T16:36:51;4.00;;;2.50;;
76758;SDS011;65701;45.588;5.186;2023-07-16T16:39:16;2.75;;;2.50;;
76758;SDS011;65701;45.588;5.186;2023-07-16T16:41:42;3.25;;;3.25;;
76758;SDS011;65701;45.588;5.186;2023-07-16T16:44:08;3.75;;;3.00;;
76758;SDS011;65701;45.588;5.186;2023-07-16T16:46:33;3.00;;;3.00;;
76758;SDS011;65701;45.588;5.186;2023-07-16T16:48:59;3.00;;;3.00;;
76758;SDS011;65701;45.588;5.186;2023-07-16T16:51:26;3.50;;;2.50;;
76758;SDS011;65701;45.588;5.186;2023-07-16T16:53:51;4.00;;;3.00;;
76758;SDS011;65701;45.588;5.186;2023-07-16T16:56:17;3.50;;;2.50;;
76758;SDS011;65701;45.588;5.186;2023-07-16T16:58:42;4.50;;;3.25;;
76758;SDS011;65701;45.588;5.186;2023-07-16T17:01:08;3.50;;;3.50;;
76758;SDS011;65701;45.588;5.186;2023-07-16T17:03:33;3.25;;;3.25;;
76758;SDS011;65701;45.588;5.186;2023-07-16T17:05:59;5.25;;;3.00;;
76758;SDS011;65701;45.588;5.186;2023-07-16T17:08:27;2.25;;;2.25;;
76758;SDS011;65701;45.588;5.186;2023-07-16T17:10:52;5.75;;;4.50;;
76758;SDS011;65701;45.588;5.186;2023-07-16T17:13:18;3.00;;;3.00;;
76758;SDS011;65701;45.588;5.186;2023-07-16T17:15:44;3.00;;;3.00;;
76758;SDS011;65701;45.588;5.186;2023-07-16T17:18:10;6.75;;;4.75;;
76758;SDS011;65701;45.588;5.186;2023-07-16T17:20:36;3.00;;;3.00;;
76758;SDS011;65701;45.588;5.186;2023-07-16T17:23:01;4.75;;;3.75;;
76758;SDS011;65701;45.588;5.186;2023-07-16T17:25:27;5.00;;;5.00;;
76758;SDS011;65701;45.588;5.186;2023-07-16T17:27:52;4.75;;;4.00;;
76758;SDS011;65701;45.588;5.186;2023-07-16T17:30:18;5.00;;;2.75;;
76758;SDS011;65701;45.588;5.186;2023-07-16T17:32:43;4.25;;;4.25;;
76758;SDS011;65701;45.588;5.186;2023-07-16T17:35:09;3.00;;;3.00;;
76758;SDS011;65701;45.588;5.186;2023-07-16T17:37:34;2.25;;;2.25;;
76758;SDS011;65701;45.588;5.186;2023-07-16T17:40:00;2.00;;;2.00;;
76758;SDS011;65701;45.588;5.186;2023-07-16T17:42:25;6.25;;;3.25;;
76758;SDS011;65701;45.588;5.186;2023-07-16T17:44:51;3.25;;;3.25;;
76758;SDS011;65701;45.588;5.186;2023-07-16T17:47:19;4.00;;;2.00;;
76758;SDS011;65701;45.588;5.186;2023-07-16T17:49:44;2.25;;;2.25;;
76758;SDS011;65701;45.588;5.186;2023-07-16T17:52:10;2.25;;;2.25;;
76758;SDS011;65701;45.588;5.186;2023-07-16T17:54:37;4.75;;;3.00;;
76758;SDS011;65701;45.588;5.186;2023-07-16T17:57:02;2.25;;;2.25;;
76758;SDS011;65701;45.588;5.186;2023-07-16T17:59:29;4.00;;;4.00;;
76758;SDS011;65701;45.588;5.186;2023-07-16T18:01:55;2.75;;;2.50;;
76758;SDS011;65701;45.588;5.186;2023-07-16T18:04:20;4.25;;;3.00;;
76758;SDS011;65701;45.588;5.186;2023-07-16T18:06:46;2.75;;;2.75;;
76758;SDS011;65701;45.588;5.186;2023-07-16T18:09:12;2.00;;;2.00;;
76758;SDS011;65701;45.588;5.186;2023-07-16T18:11:41;6.00;;;2.00;;
76758;SDS011;65701;45.588;5.186;2023-07-16T18:14:09;5.00;;;3.00;;
76758;SDS011;65701;45.588;5.186;2023-07-16T18:16:36;5.25;;;3.00;;
76758;SDS011;65701;45.588;5.186;2023-07-16T18:19:02;4.00;;;4.00;;
76758;SDS011;65701;45.588;5.186;2023-07-16T18:21:28;4.75;;;2.75;;
76758;SDS011;65701;45.588;5.186;2023-07-16T18:23:56;4.75;;;4.75;;
76758;SDS011;65701;45.588;5.186;2023-07-16T18:26:23;3.25;;;3.25;;
76758;SDS011;65701;45.588;5.186;2023-07-16T18:28:50;3.00;;;2.25;;
76758;SDS011;65701;45.588;5.186;2023-07-16T18:31:17;5.00;;;3.75;;
76758;SDS011;65701;45.588;5.186;2023-07-16T18:33:43;6.00;;;4.00;;
76758;SDS011;65701;45.588;5.186;2023-07-16T18:36:09;3.00;;;3.00;;
76758;SDS011;65701;45.588;5.186;2023-07-16T18:38:34;3.00;;;3.00;;
76758;SDS011;65701;45.588;5.186;2023-07-16T18:41:00;4.50;;;3.50;;
76758;SDS011;65701;45.588;5.186;2023-07-16T18:43:26;3.50;;;2.00;;
76758;SDS011;65701;45.588;5.186;2023-07-16T18:45:51;4.00;;;2.25;;
76758;SDS011;65701;45.588;5.186;2023-07-16T18:48:18;5.00;;;5.00;;
76758;SDS011;65701;45.588;5.186;2023-07-16T18:50:47;3.00;;;3.00;;
76758;SDS011;65701;45.588;5.186;2023-07-16T18:53:12;3.00;;;3.00;;
76758;SDS011;65701;45.588;5.186;2023-07-16T18:55:38;6.25;;;2.75;;
76758;SDS011;65701;45.588;5.186;2023-07-16T18:58:03;2.50;;;2.50;;
76758;SDS011;65701;45.588;5.186;2023-07-16T19:00:29;6.50;;;3.00;;